| Date | Time | Temp. (oF) | Dew Point (oF) | Rel. Hum. (%) | Press. (in.) | Wind Dir. (deg.) | Wind Speed (mph) | Hourly Rainfall (i n.) |
|
|---|---|---|---|---|---|---|---|---|---|
| 1 | 04/30 | 24:00 | 52 | 29 | 42 | 30.34 | 110 | 0 | 0.00 |
| 2 | 04/29 | 23:00 | 55 | 33 | 44 | 30.32 | 190 | 6 | 0.00 |
| 3 | 04/29 | 22:00 | 57 | 29 | 35 | 30.29 | 30 | 1 | 0.00 |
| 4 | 04/29 | 21:00 | 59 | 28 | 32 | 30.22 | 30 | 1 | 0.00 |
| 5 | 04/29 | 20:00 | 63 | 29 | 28 | 30.21 | 30 | 0 | 0.00 |
| 6 | 04/29 | 19:00 | 68 | 31 | 26 | 30.23 | 310 | 6 | 0.00 |
| 7 | 04/29 | 18:00 | 72 | 29 | 21 | 30.24 | 10 | 6 | 0.00 |
| 8 | 04/29 | 17:00 | 72 | 30 | 22 | 30.25 | 70 | 2 | 0.00 |
| 9 | 04/29 | 16:00 | 72 | 31 | 23 | 30.31 | 270 | 4 | 0.00 |
| 10 | 04/29 | 15:00 | 73 | 31 | 22 | 30.33 | 50 | 1 | 0.00 |
| 11 | 04/29 | 14:00 | 74 | 32 | 22 | 30.31 | 40 | 1 | 0.00 |
| 12 | 04/29 | 13:00 | 73 | 33 | 24 | 30.32 | 330 | 4 | 0.00 |
| 13 | 04/29 | 12:00 | 72 | 34 | 26 | 30.33 | 310 | 10 | 0.00 |
| 14 | 04/29 | 11:00 | 67 | 38 | 35 | 30.39 | 110 | 6 | 0.00 |
| 15 | 04/29 | 10:00 | 54 | 39 | 58 | 30.37 | 50 | 2 | 0.00 |
| 16 | 04/29 | 09:00 | 48 | 40 | 74 | 30.36 | 150 | 1 | 0.00 |
| 17 | 04/29 | 08:00 | 43 | 37 | 81 | 30.36 | 150 | 0 | 0.00 |
| 18 | 04/29 | 07:00 | 42 | 35 | 78 | 30.35 | 150 | 0 | 0.00 |
| 19 | 04/29 | 06:00 | 43 | 35 | 76 | 30.33 | 150 | 0 | 0.00 |
| 20 | 04/29 | 05:00 | 44 | 35 | 73 | 30.32 | 150 | 0 | 0.00 |
| 21 | 04/29 | 04:00 | 45 | 36 | 71 | 30.32 | 150 | 0 | 0.00 |
| 22 | 04/29 | 03:00 | 45 | 35 | 70 | 30.33 | 150 | 0 | 0.00 |
| 23 | 04/29 | 02:00 | 46 | 34 | 65 | 30.33 | 150 | 0 | 0.00 |
| 24 | 04/29 | 01:00 | 48 | 36 | 65 | 30.34 | 150 | 0 | 0.00 |